CPX793 Details

Departure: Kingsford Smith International Airport (YSSY)
Arrival: Auckland International Airport (NZAA)
Route: TESAT L521 LUNBI AA


Current Weather Information
YSSY 212300Z 32005KT 9999 FEW030 20/11 Q1027 NOSIG
NZAA 212300Z AUTO 26004KT 220V290 9999 OVC030/// 16/11 Q1026 NOSIG